CheckWX is a tool to help pilots better visualize weather data.  It is not intended as a substitute for an official pre-flight weather briefing.

09:34:04 UTC

VTSF METAR
Nakhon Si Thammarat Airport
Nakhon Si Thammarat, Thailand
Current

34 mins ago

VTSF 280900Z 11010KT 070V140 9999 FEW018 32/24 Q1009 NOSIG
Observed
Feb-28 @ 09:00 UTC
Wind
  • 110° at 10 KTS
Visibility
10,000+ meters
Flight Rules
VFR
Cloud Levels
  • Few at 1,800' AGL
Temperature
32°C / 90°F
Dewpoint
24°C / 75°F
Heat Index
38°C / 101°F
Humidity
63%
Altimeter
29.79" Hg
Pressure
1008.92 hPa
Previous

2 hours ago

VTSF 280800Z 09012KT 050V120 9999 FEW016TCU SCT018 32/25 Q1009 NOSIG
Observed
Feb-28 @ 08:00 UTC
Wind
  • 090° at 12 KTS
Visibility
10,000+ meters
Flight Rules
VFR
Cloud Levels
  • Few at 1,600' AGL
  • Scattered at 1,800' AGL
Temperature
32°C / 90°F
Dewpoint
25°C / 77°F
Heat Index
40°C / 104°F
Humidity
67%
Altimeter
29.79" Hg
Pressure
1008.92 hPa
Previous

3 hours ago

VTSF 280700Z 10011KT 060V120 9999 SCT018 33/24 Q1010 NOSIG
Observed
Feb-28 @ 07:00 UTC
Wind
  • 100° at 11 KTS
Visibility
10,000+ meters
Flight Rules
VFR
Cloud Levels
  • Scattered at 1,800' AGL
Temperature
33°C / 91°F
Dewpoint
24°C / 75°F
Heat Index
39°C / 102°F
Humidity
59%
Altimeter
29.82" Hg
Pressure
1009.92 hPa